Terminal Aerodrome Forecast
Issued by NWS Cleveland, OH

Home | Current Version | Previous Version | Graphics & Text | Print | Product List | Glossary On
Versions: 1 2 3 4 5 6 7 8 9 10 11 12 13 14 15 16 17 18 19 20
000
FTUS41 KCLE 260300 AAA
TAFTOL
TAF AMD
KTOL 260349Z 2604/2624 25007KT P6SM SCT015 OVC045
      TEMPO 2604/2608 OVC015
     FM260800 30004KT 5SM -RA BR OVC015
     FM261200 33007KT 3SM -RASN BR OVC008
     FM261600 30008KT 6SM -SN BR OVC015
     FM261800 30010KT P6SM OVC025
     FM262000 28010KT P6SM BKN045=

USA.gov is the U.S. government's official web portal to all federal, state and local government web resources and services.